Historyczne dane pomiarowe

Dodano dane terminowe – wersja testowa.

Dane z okresu 1951-2019

Wersja bazy: 1.34 [2019-03-16, lista zmian], aktualizacja planowana na 2019-04-15

Dane meteo z obszaru Polski uzyskane na podstawie danych udostępnionych przez Instytut Meteorologii i Gospodarki Wodnej – Państwowy Instytut Badawczy.

 

Wybierz Datę:    

       

TemperaturaWilgotnośćWiatrCiśnienieOpadyŚniegCzas trwania zjawisk
 Stacja t tx tn tng RH VA  wxwx mslp ppp RRR   cm mm wxwxwxwxwxwxwx
1994-08-14 14.9 19.8 12.4 10.6 66.8- 4.0 3.3---- 0.0------------
1994-08-13 17.0 22.9 15.2 13.9 84.3- 7.0 4.0---- 1.6------------
1994-08-12 17.1 21.9 14.7 11.7 86.0- 7.7 3.0---- 4.1------------
1994-08-11 17.7 23.0 15.8 15.2 92.5- 7.3 2.0---- 5.5------------
1994-08-10 20.2 27.4 12.6 11.1 72.3- 2.3 1.7---- 3.5------------
1994-08-09 18.9 24.1 17.9 16.3 93.8- 8.0 3.0---- 4.0------------
1994-08-08 23.3 29.5 18.6 17.7 76.0- 5.0 2.3---- 0.9------------
1994-08-07 24.2 32.0 19.6 16.2 67.5- 4.0 2.0---- 0.2------------
1994-08-06 23.3 32.5 13.1 11.1 58.8- 2.3 1.7---- 0.0------------
1994-08-05 23.5 29.9 15.9 13.9 68.3- 1.3 1.3---- 0.0------------
1994-08-04 22.6 28.5 17.7 16.4 76.0- 4.0 2.0---- 4.4------------
1994-08-03 23.8 31.4 19.3 15.3 74.0- 6.0 2.0---- 13.0------------
1994-08-02 24.7 33.1 17.2 13.0 65.0- 6.3 1.3---- 0.2------------
1994-08-01 26.2 34.9 16.2 13.1 55.5- 2.3 2.0---- 0.0------------
1994-07-31 25.5 33.5 15.3 12.1 58.5- 0.7 1.0---- 0.0------------
1994-07-30 24.7 34.0 14.3 11.1 54.8- 0.7 1.0---- 0.0------------
1994-07-29 24.8 33.0 13.5 10.6 54.0- 0.3 1.3---- 0.0------------
1994-07-28 24.4 33.0 13.9 10.6 50.8- 1.7 1.3---- 0.0------------
1994-07-27 24.2 33.9 14.3 11.1 58.3- 2.3 0.7---- 0.0------------
1994-07-26 23.9 32.6 14.1 10.2 55.3- 1.0 1.3---- 0.0------------
1994-07-25 23.0 31.1 11.5 7.6 58.3- 1.0 1.0---- 0.0------------
1994-07-24 23.0 29.6 11.9 8.1 55.3- 0.3 1.0---- 0.0------------
1994-07-23 21.6 27.8 11.0 7.2 62.0- 1.7 1.0---- 0.0------------
1994-07-22 20.7 28.0 9.4 6.8 58.5- 1.0 2.0---- 0.0------------
1994-07-21 19.4 26.5 9.1 6.0 64.0- 0.3 1.0---- 0.0------------
1994-07-20 19.1 23.9 15.5 8.6 56.5- 2.0 2.7---- 0.0------------
1994-07-19 19.7 23.4 13.9 11.8 80.3- 5.7 0.7---- 0.0------------
1994-07-18 21.6 27.4 16.2 14.8 79.8- 2.7 2.0---- 0.0------------
1994-07-17 21.4 28.0 17.1 13.9 81.8- 6.7 2.3---- 9.1------------
1994-07-16 22.7 29.7 14.3 12.1 71.3- 3.7 1.7---- 0.4------------
1994-07-15 22.4 27.4 14.0 11.2 70.8- 3.3 2.7---- 0.0------------
1994-07-14 22.0 28.5 13.5 10.8 68.5- 5.0 3.0---- 0.0------------
1994-07-13 21.2 27.0 14.3 11.5 67.8- 5.0 2.0---- 0.0------------
1994-07-12 20.5 25.9 15.0 13.9 75.5- 1.3 3.0---- 0.0------------
1994-07-11 19.1 25.1 13.4 10.6 79.0- 5.0 2.7---- 0.0------------
1994-07-10 17.3 22.0 12.9 12.4 82.8- 6.3 2.7---- 0.4------------
1994-07-09 14.6 16.6 13.8 12.5 86.8- 7.0 3.0---- 18.9------------
1994-07-08 16.8 20.6 15.2 13.0 74.8- 4.7 3.3---- 0.2------------
1994-07-07 19.2 26.8 12.8 7.6 69.8- 5.7 1.7---- 2.1------------
1994-07-06 19.3 25.1 11.5 8.0 68.5- 2.3 1.3---- 0.0------------
1994-07-05 21.3 28.0 10.3 9.1 62.3- 5.7 2.3---- 3.2------------
1994-07-04 21.5 28.0 9.5 6.6 60.8- 1.7 1.7---- 0.0------------
1994-07-03 19.4 25.6 8.5 5.1 59.5- 0.3 1.7---- 0.0------------
1994-07-02 19.0 24.5 9.9 6.1 61.5- 0.3 2.3---- 0.0------------
1994-07-01 18.4 23.1 13.2 9.4 66.5- 2.0 2.7---- 0.0------------
1994-06-30 21.5 26.3 16.4 15.3 74.0- 6.7 1.7---- 0.0------------
1994-06-29 23.6 29.2 15.6 13.3 67.5- 1.7 2.0---- 0.0------------
1994-06-28 23.9 28.6 17.2 15.2 66.5- 1.7 2.3---- 0.0------------
1994-06-27 24.1 32.0 14.3 13.1 67.5- 1.3 1.3---- 0.0------------
1994-06-26 19.7 28.2 8.3 5.9 64.5- 1.3 2.3---- 0.0------------
1994-06-25 14.9 21.5 4.4 2.3 63.3- 0.3 1.3---- 0.0------------
1994-06-24 14.1 19.7 6.4 3.3 61.0- 1.3 3.7---- 0.0------------
1994-06-23 17.6 22.8 15.3 14.1 58.0- 3.7 6.0---- 0.0------------
1994-06-22 18.5 25.8 7.8 5.6 69.8- 5.0 3.3---- 0.0------------
1994-06-21 15.7 21.5 6.8 3.6 69.0- 3.0 1.7---- 0.0------------
1994-06-20 16.5 21.6 9.9 7.2 76.8- 4.0 5.7---- 0.0------------
1994-06-19 17.7 23.5 11.6 10.8 74.3- 5.0 5.0---- 0.0------------
1994-06-18 12.5 18.8 3.4 -0.1 75.8- 5.7 2.7---- 12.9------------
1994-06-17 12.1 16.6 9.1 7.7 69.8- 4.7 5.0---- 0.0------------
1994-06-16 11.3 16.9 6.3 5.4 80.3- 8.0 4.3---- 4.3------------
523.2 ms

 

Źródłem pochodzenia danych jest Instytut Meteorologii i Gospodarki Wodnej – Państwowy Instytut Badawczy. Dane Instytutu Meteorologii i Gospodarki Wodnej – Państwowego Instytutu Badawczego zostały przetworzone.

Dane źródłowe można odnaleźć na stronie https://dane.imgw.pl